sensor_id;sensor_type;location;lat;lon;timestamp;temperature;humidity
58102;HTU21D;52034;51.926;6.320;2024-02-15T00:00:43;12.05;93.77
58102;HTU21D;52034;51.926;6.320;2024-02-15T00:01:44;12.08;93.48
58102;HTU21D;52034;51.926;6.320;2024-02-15T00:02:46;12.08;93.38
58102;HTU21D;52034;51.926;6.320;2024-02-15T00:03:48;12.10;93.85
58102;HTU21D;52034;51.926;6.320;2024-02-15T00:04:51;12.12;93.47
58102;HTU21D;52034;51.926;6.320;2024-02-15T00:05:52;12.13;93.54
58102;HTU21D;52034;51.926;6.320;2024-02-15T00:06:54;12.14;93.78
58102;HTU21D;52034;51.926;6.320;2024-02-15T00:07:56;12.14;93.20
58102;HTU21D;52034;51.926;6.320;2024-02-15T00:08:57;12.14;93.44
58102;HTU21D;52034;51.926;6.320;2024-02-15T00:09:59;12.12;92.97
58102;HTU21D;52034;51.926;6.320;2024-02-15T00:11:01;12.08;92.63
58102;HTU21D;52034;51.926;6.320;2024-02-15T00:12:04;12.14;93.51
58102;HTU21D;52034;51.926;6.320;2024-02-15T00:13:06;12.15;92.87
58102;HTU21D;52034;51.926;6.320;2024-02-15T00:14:08;12.15;93.12
58102;HTU21D;52034;51.926;6.320;2024-02-15T00:15:10;12.18;92.60
58102;HTU21D;52034;51.926;6.320;2024-02-15T00:16:15;12.17;92.76
58102;HTU21D;52034;51.926;6.320;2024-02-15T00:17:17;12.19;92.49
58102;HTU21D;52034;51.926;6.320;2024-02-15T00:18:19;12.20;92.90
58102;HTU21D;52034;51.926;6.320;2024-02-15T00:19:21;12.15;93.26
58102;HTU21D;52034;51.926;6.320;2024-02-15T00:20:23;12.17;92.81
58102;HTU21D;52034;51.926;6.320;2024-02-15T00:21:25;12.18;93.35
58102;HTU21D;52034;51.926;6.320;2024-02-15T00:22:26;12.16;92.46
58102;HTU21D;52034;51.926;6.320;2024-02-15T00:23:28;12.17;92.78
58102;HTU21D;52034;51.926;6.320;2024-02-15T00:24:30;12.13;92.88
58102;HTU21D;52034;51.926;6.320;2024-02-15T00:25:32;12.15;93.15
58102;HTU21D;52034;51.926;6.320;2024-02-15T00:26:34;12.16;92.87
58102;HTU21D;52034;51.926;6.320;2024-02-15T00:27:36;12.16;92.55
58102;HTU21D;52034;51.926;6.320;2024-02-15T00:28:38;12.14;93.11
58102;HTU21D;52034;51.926;6.320;2024-02-15T00:29:42;12.14;92.82
58102;HTU21D;52034;51.926;6.320;2024-02-15T00:30:44;12.16;92.43
58102;HTU21D;52034;51.926;6.320;2024-02-15T00:31:46;12.15;92.61
58102;HTU21D;52034;51.926;6.320;2024-02-15T00:32:48;12.16;92.99
58102;HTU21D;52034;51.926;6.320;2024-02-15T00:33:51;12.13;93.37
58102;HTU21D;52034;51.926;6.320;2024-02-15T00:34:53;12.14;93.53
58102;HTU21D;52034;51.926;6.320;2024-02-15T00:35:55;12.16;92.71
58102;HTU21D;52034;51.926;6.320;2024-02-15T00:36:57;12.13;92.98
58102;HTU21D;52034;51.926;6.320;2024-02-15T00:37:58;12.15;92.77
58102;HTU21D;52034;51.926;6.320;2024-02-15T00:39:00;12.11;93.40
58102;HTU21D;52034;51.926;6.320;2024-02-15T00:40:02;12.15;92.57
58102;HTU21D;52034;51.926;6.320;2024-02-15T00:41:07;12.16;92.69
58102;HTU21D;52034;51.926;6.320;2024-02-15T00:42:09;12.18;92.27
58102;HTU21D;52034;51.926;6.320;2024-02-15T00:43:10;12.16;92.87
58102;HTU21D;52034;51.926;6.320;2024-02-15T00:44:12;12.18;92.06
58102;HTU21D;52034;51.926;6.320;2024-02-15T00:45:14;12.17;92.95
58102;HTU21D;52034;51.926;6.320;2024-02-15T00:46:16;12.18;92.42
58102;HTU21D;52034;51.926;6.320;2024-02-15T00:47:18;12.21;92.36
58102;HTU21D;52034;51.926;6.320;2024-02-15T00:48:22;12.17;92.64
58102;HTU21D;52034;51.926;6.320;2024-02-15T00:49:27;12.20;92.46
58102;HTU21D;52034;51.926;6.320;2024-02-15T00:50:30;12.21;92.43
58102;HTU21D;52034;51.926;6.320;2024-02-15T00:51:32;12.25;92.21
58102;HTU21D;52034;51.926;6.320;2024-02-15T00:52:35;12.27;92.37
58102;HTU21D;52034;51.926;6.320;2024-02-15T00:53:36;12.25;92.33
58102;HTU21D;52034;51.926;6.320;2024-02-15T00:54:38;12.22;92.21
58102;HTU21D;52034;51.926;6.320;2024-02-15T00:55:40;12.22;91.90
58102;HTU21D;52034;51.926;6.320;2024-02-15T00:56:41;12.25;92.15
58102;HTU21D;52034;51.926;6.320;2024-02-15T00:57:43;12.19;92.37
58102;HTU21D;52034;51.926;6.320;2024-02-15T00:58:45;12.21;92.38
58102;HTU21D;52034;51.926;6.320;2024-02-15T00:59:46;12.23;91.81
58102;HTU21D;52034;51.926;6.320;2024-02-15T01:00:49;12.22;91.88
58102;HTU21D;52034;51.926;6.320;2024-02-15T01:01:51;12.25;92.11
58102;HTU21D;52034;51.926;6.320;2024-02-15T01:02:58;12.28;91.51
58102;HTU21D;52034;51.926;6.320;2024-02-15T01:04:00;12.28;91.53
58102;HTU21D;52034;51.926;6.320;2024-02-15T01:05:01;12.26;91.77
58102;HTU21D;52034;51.926;6.320;2024-02-15T01:06:03;12.25;91.50
58102;HTU21D;52034;51.926;6.320;2024-02-15T01:07:07;12.27;91.47
58102;HTU21D;52034;51.926;6.320;2024-02-15T01:08:09;12.27;91.96
58102;HTU21D;52034;51.926;6.320;2024-02-15T01:09:11;12.28;91.99
58102;HTU21D;52034;51.926;6.320;2024-02-15T01:10:15;12.27;91.66
58102;HTU21D;52034;51.926;6.320;2024-02-15T01:11:16;12.26;92.11
58102;HTU21D;52034;51.926;6.320;2024-02-15T01:12:18;12.25;91.47
58102;HTU21D;52034;51.926;6.320;2024-02-15T01:13:21;12.27;91.46
58102;HTU21D;52034;51.926;6.320;2024-02-15T01:14:22;12.26;91.69
58102;HTU21D;52034;51.926;6.320;2024-02-15T01:15:24;12.25;91.86
58102;HTU21D;52034;51.926;6.320;2024-02-15T01:16:25;12.26;92.02
58102;HTU21D;52034;51.926;6.320;2024-02-15T01:17:27;12.26;92.13
58102;HTU21D;52034;51.926;6.320;2024-02-15T01:18:29;12.23;92.33
58102;HTU21D;52034;51.926;6.320;2024-02-15T01:19:31;12.27;91.53
58102;HTU21D;52034;51.926;6.320;2024-02-15T01:20:33;12.27;92.09
58102;HTU21D;52034;51.926;6.320;2024-02-15T01:21:34;12.26;91.25
58102;HTU21D;52034;51.926;6.320;2024-02-15T01:22:36;12.22;91.54
58102;HTU21D;52034;51.926;6.320;2024-02-15T01:23:38;12.26;91.73
58102;HTU21D;52034;51.926;6.320;2024-02-15T01:24:40;12.28;91.73
58102;HTU21D;52034;51.926;6.320;2024-02-15T01:25:42;12.23;92.41
58102;HTU21D;52034;51.926;6.320;2024-02-15T01:26:44;12.22;92.22
58102;HTU21D;52034;51.926;6.320;2024-02-15T01:27:45;12.22;91.89
58102;HTU21D;52034;51.926;6.320;2024-02-15T01:28:47;12.25;92.11
58102;HTU21D;52034;51.926;6.320;2024-02-15T01:29:49;12.19;92.14
58102;HTU21D;52034;51.926;6.320;2024-02-15T01:30:51;12.25;91.58
58102;HTU21D;52034;51.926;6.320;2024-02-15T01:31:53;12.29;91.53
58102;HTU21D;52034;51.926;6.320;2024-02-15T01:32:54;12.26;92.30
58102;HTU21D;52034;51.926;6.320;2024-02-15T01:33:56;12.20;92.47
58102;HTU21D;52034;51.926;6.320;2024-02-15T01:34:58;12.19;92.16
58102;HTU21D;52034;51.926;6.320;2024-02-15T01:36:00;12.18;92.43
58102;HTU21D;52034;51.926;6.320;2024-02-15T01:37:02;12.18;91.59
58102;HTU21D;52034;51.926;6.320;2024-02-15T01:38:05;12.21;92.11
58102;HTU21D;52034;51.926;6.320;2024-02-15T01:39:06;12.21;92.63
58102;HTU21D;52034;51.926;6.320;2024-02-15T01:40:09;12.20;92.43
58102;HTU21D;52034;51.926;6.320;2024-02-15T01:41:14;12.22;91.50
58102;HTU21D;52034;51.926;6.320;2024-02-15T01:42:16;12.21;91.74
58102;HTU21D;52034;51.926;6.320;2024-02-15T01:43:17;12.17;92.53
58102;HTU21D;52034;51.926;6.320;2024-02-15T01:44:19;12.16;92.40
58102;HTU21D;52034;51.926;6.320;2024-02-15T01:45:22;12.17;92.30
58102;HTU21D;52034;51.926;6.320;2024-02-15T01:46:24;12.17;92.38
58102;HTU21D;52034;51.926;6.320;2024-02-15T01:47:27;12.18;92.35
58102;HTU21D;52034;51.926;6.320;2024-02-15T01:48:32;12.17;92.24
58102;HTU21D;52034;51.926;6.320;2024-02-15T01:49:34;12.16;92.34
58102;HTU21D;52034;51.926;6.320;2024-02-15T01:50:36;12.17;92.16
58102;HTU21D;52034;51.926;6.320;2024-02-15T01:51:38;12.13;92.65
58102;HTU21D;52034;51.926;6.320;2024-02-15T01:52:40;12.11;92.71
58102;HTU21D;52034;51.926;6.320;2024-02-15T01:53:42;12.10;92.83
58102;HTU21D;52034;51.926;6.320;2024-02-15T01:54:45;12.13;92.28
58102;HTU21D;52034;51.926;6.320;2024-02-15T01:55:47;12.11;92.44
58102;HTU21D;52034;51.926;6.320;2024-02-15T01:56:49;12.12;92.56
58102;HTU21D;52034;51.926;6.320;2024-02-15T01:57:51;12.11;92.85
58102;HTU21D;52034;51.926;6.320;2024-02-15T01:58:53;12.16;91.82
58102;HTU21D;52034;51.926;6.320;2024-02-15T01:59:55;12.12;92.59
58102;HTU21D;52034;51.926;6.320;2024-02-15T02:00:58;12.13;92.16
58102;HTU21D;52034;51.926;6.320;2024-02-15T02:02:02;12.13;92.33
58102;HTU21D;52034;51.926;6.320;2024-02-15T02:03:05;12.16;91.50
58102;HTU21D;52034;51.926;6.320;2024-02-15T02:04:08;12.14;91.90
58102;HTU21D;52034;51.926;6.320;2024-02-15T02:05:10;12.14;92.07
58102;HTU21D;52034;51.926;6.320;2024-02-15T02:06:12;12.14;91.51
58102;HTU21D;52034;51.926;6.320;2024-02-15T02:07:14;12.17;91.60
58102;HTU21D;52034;51.926;6.320;2024-02-15T02:08:16;12.16;91.79
58102;HTU21D;52034;51.926;6.320;2024-02-15T02:09:17;12.18;91.41
58102;HTU21D;52034;51.926;6.320;2024-02-15T02:10:20;12.14;92.19
58102;HTU21D;52034;51.926;6.320;2024-02-15T02:11:22;12.14;91.81
58102;HTU21D;52034;51.926;6.320;2024-02-15T02:12:24;12.20;91.47
58102;HTU21D;52034;51.926;6.320;2024-02-15T02:13:29;12.18;91.69
58102;HTU21D;52034;51.926;6.320;2024-02-15T02:14:32;12.16;91.85
58102;HTU21D;52034;51.926;6.320;2024-02-15T02:15:34;12.17;91.51
58102;HTU21D;52034;51.926;6.320;2024-02-15T02:16:36;12.18;91.66
58102;HTU21D;52034;51.926;6.320;2024-02-15T02:17:38;12.19;91.69
58102;HTU21D;52034;51.926;6.320;2024-02-15T02:18:41;12.19;91.31
58102;HTU21D;52034;51.926;6.320;2024-02-15T02:19:43;12.21;90.57
58102;HTU21D;52034;51.926;6.320;2024-02-15T02:20:46;12.20;91.22
58102;HTU21D;52034;51.926;6.320;2024-02-15T02:21:47;12.17;91.63
58102;HTU21D;52034;51.926;6.320;2024-02-15T02:22:53;12.18;91.12
58102;HTU21D;52034;51.926;6.320;2024-02-15T02:23:58;12.20;91.35
58102;HTU21D;52034;51.926;6.320;2024-02-15T02:25:07;12.20;91.61
58102;HTU21D;52034;51.926;6.320;2024-02-15T02:26:12;12.17;91.39
58102;HTU21D;52034;51.926;6.320;2024-02-15T02:27:14;12.11;91.66
58102;HTU21D;52034;51.926;6.320;2024-02-15T02:28:17;12.08;92.12
58102;HTU21D;52034;51.926;6.320;2024-02-15T02:29:18;12.07;92.45
58102;HTU21D;52034;51.926;6.320;2024-02-15T02:30:20;12.10;92.06
58102;HTU21D;52034;51.926;6.320;2024-02-15T02:31:23;12.11;91.88
58102;HTU21D;52034;51.926;6.320;2024-02-15T02:32:26;12.06;91.84
58102;HTU21D;52034;51.926;6.320;2024-02-15T02:33:28;12.13;91.35
58102;HTU21D;52034;51.926;6.320;2024-02-15T02:34:31;12.14;91.11
58102;HTU21D;52034;51.926;6.320;2024-02-15T02:35:32;12.15;91.15
58102;HTU21D;52034;51.926;6.320;2024-02-15T02:36:34;12.11;91.72
58102;HTU21D;52034;51.926;6.320;2024-02-15T02:37:41;12.15;91.25
58102;HTU21D;52034;51.926;6.320;2024-02-15T02:38:43;12.14;91.02
58102;HTU21D;52034;51.926;6.320;2024-02-15T02:39:46;12.17;91.11
58102;HTU21D;52034;51.926;6.320;2024-02-15T02:40:48;12.13;91.46
58102;HTU21D;52034;51.926;6.320;2024-02-15T02:41:50;12.13;91.50
58102;HTU21D;52034;51.926;6.320;2024-02-15T02:42:53;12.10;91.70
58102;HTU21D;52034;51.926;6.320;2024-02-15T02:43:57;12.11;91.90
58102;HTU21D;52034;51.926;6.320;2024-02-15T02:44:59;12.11;91.56
58102;HTU21D;52034;51.926;6.320;2024-02-15T02:46:01;12.08;91.85
58102;HTU21D;52034;51.926;6.320;2024-02-15T02:47:03;12.07;91.98
58102;HTU21D;52034;51.926;6.320;2024-02-15T02:48:05;12.07;91.95
58102;HTU21D;52034;51.926;6.320;2024-02-15T02:49:07;12.07;91.99
58102;HTU21D;52034;51.926;6.320;2024-02-15T02:50:09;12.07;91.97
58102;HTU21D;52034;51.926;6.320;2024-02-15T02:51:11;12.02;92.09
58102;HTU21D;52034;51.926;6.320;2024-02-15T02:52:13;12.06;91.88
58102;HTU21D;52034;51.926;6.320;2024-02-15T02:53:15;12.03;91.85
58102;HTU21D;52034;51.926;6.320;2024-02-15T02:54:17;12.02;92.13
58102;HTU21D;52034;51.926;6.320;2024-02-15T02:55:19;12.08;91.92
58102;HTU21D;52034;51.926;6.320;2024-02-15T02:56:20;12.05;91.78
58102;HTU21D;52034;51.926;6.320;2024-02-15T02:57:22;12.06;92.01
58102;HTU21D;52034;51.926;6.320;2024-02-15T02:58:23;12.05;91.97
58102;HTU21D;52034;51.926;6.320;2024-02-15T02:59:25;12.06;91.57
58102;HTU21D;52034;51.926;6.320;2024-02-15T03:00:27;12.06;91.78
58102;HTU21D;52034;51.926;6.320;2024-02-15T03:01:29;12.08;91.40
58102;HTU21D;52034;51.926;6.320;2024-02-15T03:02:31;12.10;91.63
58102;HTU21D;52034;51.926;6.320;2024-02-15T03:03:32;12.13;91.53
58102;HTU21D;52034;51.926;6.320;2024-02-15T03:04:34;12.06;91.65
58102;HTU21D;52034;51.926;6.320;2024-02-15T03:05:36;12.07;91.66
58102;HTU21D;52034;51.926;6.320;2024-02-15T03:06:37;12.05;91.77
58102;HTU21D;52034;51.926;6.320;2024-02-15T03:07:39;12.05;91.53
58102;HTU21D;52034;51.926;6.320;2024-02-15T03:08:44;12.04;91.52
58102;HTU21D;52034;51.926;6.320;2024-02-15T03:09:46;12.01;91.93
58102;HTU21D;52034;51.926;6.320;2024-02-15T03:10:48;11.99;91.93
58102;HTU21D;52034;51.926;6.320;2024-02-15T03:11:50;11.99;91.95
58102;HTU21D;52034;51.926;6.320;2024-02-15T03:12:51;11.98;92.03
58102;HTU21D;52034;51.926;6.320;2024-02-15T03:13:54;12.01;91.89
58102;HTU21D;52034;51.926;6.320;2024-02-15T03:14:55;12.01;91.78
58102;HTU21D;52034;51.926;6.320;2024-02-15T03:15:57;12.01;91.96
58102;HTU21D;52034;51.926;6.320;2024-02-15T03:16:58;11.97;91.94
58102;HTU21D;52034;51.926;6.320;2024-02-15T03:18:00;12.01;91.61
58102;HTU21D;52034;51.926;6.320;2024-02-15T03:19:08;12.01;91.66
58102;HTU21D;52034;51.926;6.320;2024-02-15T03:20:12;12.03;91.58
58102;HTU21D;52034;51.926;6.320;2024-02-15T03:21:26;12.01;91.78
58102;HTU21D;52034;51.926;6.320;2024-02-15T03:22:28;12.03;91.75
58102;HTU21D;52034;51.926;6.320;2024-02-15T03:23:30;12.01;91.53
58102;HTU21D;52034;51.926;6.320;2024-02-15T03:24:34;12.02;91.51
58102;HTU21D;52034;51.926;6.320;2024-02-15T03:25:36;12.01;91.50
58102;HTU21D;52034;51.926;6.320;2024-02-15T03:26:38;11.99;91.55
58102;HTU21D;52034;51.926;6.320;2024-02-15T03:27:41;12.00;91.63
58102;HTU21D;52034;51.926;6.320;2024-02-15T03:28:43;11.97;91.76
58102;HTU21D;52034;51.926;6.320;2024-02-15T03:29:46;11.94;91.89
58102;HTU21D;52034;51.926;6.320;2024-02-15T03:30:48;11.90;92.01
58102;HTU21D;52034;51.926;6.320;2024-02-15T03:31:51;11.90;92.18
58102;HTU21D;52034;51.926;6.320;2024-02-15T03:32:55;11.92;91.89
58102;HTU21D;52034;51.926;6.320;2024-02-15T03:33:57;11.94;91.63
58102;HTU21D;52034;51.926;6.320;2024-02-15T03:35:00;11.96;91.60
58102;HTU21D;52034;51.926;6.320;2024-02-15T03:36:02;11.96;91.53
58102;HTU21D;52034;51.926;6.320;2024-02-15T03:37:04;11.96;91.64
58102;HTU21D;52034;51.926;6.320;2024-02-15T03:38:06;11.89;91.92
58102;HTU21D;52034;51.926;6.320;2024-02-15T03:39:08;11.91;91.90
58102;HTU21D;52034;51.926;6.320;2024-02-15T03:40:10;11.90;91.65
58102;HTU21D;52034;51.926;6.320;2024-02-15T03:41:12;11.92;91.57
58102;HTU21D;52034;51.926;6.320;2024-02-15T03:42:14;11.92;91.69
58102;HTU21D;52034;51.926;6.320;2024-02-15T03:43:15;11.94;91.49
58102;HTU21D;52034;51.926;6.320;2024-02-15T03:44:18;11.92;91.50
58102;HTU21D;52034;51.926;6.320;2024-02-15T03:45:20;11.91;91.52
58102;HTU21D;52034;51.926;6.320;2024-02-15T03:46:26;11.94;91.43
58102;HTU21D;52034;51.926;6.320;2024-02-15T03:47:28;11.93;91.27
58102;HTU21D;52034;51.926;6.320;2024-02-15T03:48:31;11.93;91.25
58102;HTU21D;52034;51.926;6.320;2024-02-15T03:49:34;11.92;91.38
58102;HTU21D;52034;51.926;6.320;2024-02-15T03:50:35;11.90;91.37
58102;HTU21D;52034;51.926;6.320;2024-02-15T03:51:37;11.86;91.69
58102;HTU21D;52034;51.926;6.320;2024-02-15T03:52:39;11.87;91.85
58102;HTU21D;52034;51.926;6.320;2024-02-15T03:53:41;11.89;91.56
58102;HTU21D;52034;51.926;6.320;2024-02-15T03:54:42;11.86;91.62
58102;HTU21D;52034;51.926;6.320;2024-02-15T03:55:44;11.89;91.43
58102;HTU21D;52034;51.926;6.320;2024-02-15T03:56:50;11.87;91.79
58102;HTU21D;52034;51.926;6.320;2024-02-15T03:57:56;11.86;91.66
58102;HTU21D;52034;51.926;6.320;2024-02-15T03:58:59;11.85;91.95
58102;HTU21D;52034;51.926;6.320;2024-02-15T04:00:01;11.85;91.63
58102;HTU21D;52034;51.926;6.320;2024-02-15T04:01:10;11.86;91.75
58102;HTU21D;52034;51.926;6.320;2024-02-15T04:02:12;11.87;91.53
58102;HTU21D;52034;51.926;6.320;2024-02-15T04:03:16;11.89;91.51
58102;HTU21D;52034;51.926;6.320;2024-02-15T04:04:18;11.90;91.48
58102;HTU21D;52034;51.926;6.320;2024-02-15T04:05:20;11.91;91.24
58102;HTU21D;52034;51.926;6.320;2024-02-15T04:06:24;11.94;91.12
58102;HTU21D;52034;51.926;6.320;2024-02-15T04:07:26;11.94;91.17
58102;HTU21D;52034;51.926;6.320;2024-02-15T04:08:28;11.93;91.13
58102;HTU21D;52034;51.926;6.320;2024-02-15T04:09:30;11.89;91.15
58102;HTU21D;52034;51.926;6.320;2024-02-15T04:10:32;11.90;91.31
58102;HTU21D;52034;51.926;6.320;2024-02-15T04:11:33;11.91;91.32
58102;HTU21D;52034;51.926;6.320;2024-02-15T04:12:35;11.90;91.38
58102;HTU21D;52034;51.926;6.320;2024-02-15T04:13:36;11.92;91.08
58102;HTU21D;52034;51.926;6.320;2024-02-15T04:14:39;11.93;90.95
58102;HTU21D;52034;51.926;6.320;2024-02-15T04:15:41;11.92;91.24
58102;HTU21D;52034;51.926;6.320;2024-02-15T04:16:45;11.93;90.93
58102;HTU21D;52034;51.926;6.320;2024-02-15T04:17:46;11.90;91.18
58102;HTU21D;52034;51.926;6.320;2024-02-15T04:18:48;11.88;91.52
58102;HTU21D;52034;51.926;6.320;2024-02-15T04:19:50;11.97;91.02
58102;HTU21D;52034;51.926;6.320;2024-02-15T04:20:53;11.93;91.21
58102;HTU21D;52034;51.926;6.320;2024-02-15T04:21:54;11.91;91.12
58102;HTU21D;52034;51.926;6.320;2024-02-15T04:23:00;11.90;91.12
58102;HTU21D;52034;51.926;6.320;2024-02-15T04:24:01;11.93;90.99
58102;HTU21D;52034;51.926;6.320;2024-02-15T04:25:07;11.92;91.07
58102;HTU21D;52034;51.926;6.320;2024-02-15T04:26:12;11.96;90.82
58102;HTU21D;52034;51.926;6.320;2024-02-15T04:27:15;11.93;91.19
58102;HTU21D;52034;51.926;6.320;2024-02-15T04:28:17;11.91;91.06
58102;HTU21D;52034;51.926;6.320;2024-02-15T04:29:18;11.92;91.15
58102;HTU21D;52034;51.926;6.320;2024-02-15T04:30:23;11.94;91.05
58102;HTU21D;52034;51.926;6.320;2024-02-15T04:31:25;11.97;90.81
58102;HTU21D;52034;51.926;6.320;2024-02-15T04:32:30;11.94;90.83
58102;HTU21D;52034;51.926;6.320;2024-02-15T04:33:35;11.90;91.03
58102;HTU21D;52034;51.926;6.320;2024-02-15T04:34:38;11.88;91.37
58102;HTU21D;52034;51.926;6.320;2024-02-15T04:35:40;11.89;91.04
58102;HTU21D;52034;51.926;6.320;2024-02-15T04:36:45;11.90;90.93
58102;HTU21D;52034;51.926;6.320;2024-02-15T04:37:51;11.88;91.00
58102;HTU21D;52034;51.926;6.320;2024-02-15T04:38:54;11.87;91.10
58102;HTU21D;52034;51.926;6.320;2024-02-15T04:39:56;11.89;91.01
58102;HTU21D;52034;51.926;6.320;2024-02-15T04:40:58;11.84;91.18
58102;HTU21D;52034;51.926;6.320;2024-02-15T04:42:03;11.88;90.95
58102;HTU21D;52034;51.926;6.320;2024-02-15T04:43:06;11.89;90.83
58102;HTU21D;52034;51.926;6.320;2024-02-15T04:44:10;11.87;90.89
58102;HTU21D;52034;51.926;6.320;2024-02-15T04:45:13;11.87;90.77
58102;HTU21D;52034;51.926;6.320;2024-02-15T04:46:17;11.87;90.89
58102;HTU21D;52034;51.926;6.320;2024-02-15T04:47:19;11.88;90.95
58102;HTU21D;52034;51.926;6.320;2024-02-15T04:48:21;11.90;90.63
58102;HTU21D;52034;51.926;6.320;2024-02-15T04:49:26;11.93;90.64
58102;HTU21D;52034;51.926;6.320;2024-02-15T04:50:30;11.93;90.58
58102;HTU21D;52034;51.926;6.320;2024-02-15T04:51:32;11.91;90.50
58102;HTU21D;52034;51.926;6.320;2024-02-15T04:52:33;11.90;90.72
58102;HTU21D;52034;51.926;6.320;2024-02-15T04:53:36;11.90;90.76
58102;HTU21D;52034;51.926;6.320;2024-02-15T04:54:39;11.93;90.50
58102;HTU21D;52034;51.926;6.320;2024-02-15T04:55:41;11.92;90.31
58102;HTU21D;52034;51.926;6.320;2024-02-15T04:56:43;11.94;90.50
58102;HTU21D;52034;51.926;6.320;2024-02-15T04:57:44;11.94;90.57
58102;HTU21D;52034;51.926;6.320;2024-02-15T04:58:49;11.96;90.35
58102;HTU21D;52034;51.926;6.320;2024-02-15T04:59:52;11.92;90.59
58102;HTU21D;52034;51.926;6.320;2024-02-15T05:00:55;11.96;90.47
58102;HTU21D;52034;51.926;6.320;2024-02-15T05:02:01;11.99;90.26
58102;HTU21D;52034;51.926;6.320;2024-02-15T05:03:02;11.92;90.49
58102;HTU21D;52034;51.926;6.320;2024-02-15T05:04:05;11.97;90.12
58102;HTU21D;52034;51.926;6.320;2024-02-15T05:05:09;11.94;90.37
58102;HTU21D;52034;51.926;6.320;2024-02-15T05:06:11;11.97;90.34
58102;HTU21D;52034;51.926;6.320;2024-02-15T05:07:16;11.99;90.27
58102;HTU21D;52034;51.926;6.320;2024-02-15T05:08:18;11.94;90.53
58102;HTU21D;52034;51.926;6.320;2024-02-15T05:09:20;11.96;90.46
58102;HTU21D;52034;51.926;6.320;2024-02-15T05:10:21;11.99;90.24
58102;HTU21D;52034;51.926;6.320;2024-02-15T05:11:23;12.00;90.10
58102;HTU21D;52034;51.926;6.320;2024-02-15T05:12:25;12.02;90.09
58102;HTU21D;52034;51.926;6.320;2024-02-15T05:13:26;12.00;90.07
58102;HTU21D;52034;51.926;6.320;2024-02-15T05:14:28;12.03;89.77
58102;HTU21D;52034;51.926;6.320;2024-02-15T05:15:30;12.02;90.02
58102;HTU21D;52034;51.926;6.320;2024-02-15T05:16:32;12.04;89.95
58102;HTU21D;52034;51.926;6.320;2024-02-15T05:17:34;12.05;89.67
58102;HTU21D;52034;51.926;6.320;2024-02-15T05:18:36;12.04;89.67
58102;HTU21D;52034;51.926;6.320;2024-02-15T05:19:39;12.01;89.63
58102;HTU21D;52034;51.926;6.320;2024-02-15T05:20:40;12.03;89.87
58102;HTU21D;52034;51.926;6.320;2024-02-15T05:21:42;12.02;89.79
58102;HTU21D;52034;51.926;6.320;2024-02-15T05:22:46;12.03;89.71
58102;HTU21D;52034;51.926;6.320;2024-02-15T05:23:52;12.03;89.95
58102;HTU21D;52034;51.926;6.320;2024-02-15T05:24:55;12.05;89.86
58102;HTU21D;52034;51.926;6.320;2024-02-15T05:25:57;12.04;89.79
58102;HTU21D;52034;51.926;6.320;2024-02-15T05:26:59;12.10;89.54
58102;HTU21D;52034;51.926;6.320;2024-02-15T05:28:02;12.05;89.82
58102;HTU21D;52034;51.926;6.320;2024-02-15T05:29:05;12.08;89.86
58102;HTU21D;52034;51.926;6.320;2024-02-15T05:30:07;12.05;89.62
58102;HTU21D;52034;51.926;6.320;2024-02-15T05:31:20;12.07;89.87
58102;HTU21D;52034;51.926;6.320;2024-02-15T05:32:23;12.07;89.58
58102;HTU21D;52034;51.926;6.320;2024-02-15T05:33:25;12.08;89.63
58102;HTU21D;52034;51.926;6.320;2024-02-15T05:34:27;12.08;89.88
58102;HTU21D;52034;51.926;6.320;2024-02-15T05:35:31;12.11;89.69
58102;HTU21D;52034;51.926;6.320;2024-02-15T05:36:33;12.08;89.79
58102;HTU21D;52034;51.926;6.320;2024-02-15T05:37:35;12.07;89.89
58102;HTU21D;52034;51.926;6.320;2024-02-15T05:38:37;12.08;89.89
58102;HTU21D;52034;51.926;6.320;2024-02-15T05:39:38;12.08;90.04
58102;HTU21D;52034;51.926;6.320;2024-02-15T05:40:41;12.12;89.83
58102;HTU21D;52034;51.926;6.320;2024-02-15T05:41:43;12.08;90.08
58102;HTU21D;52034;51.926;6.320;2024-02-15T05:42:45;12.11;89.84
58102;HTU21D;52034;51.926;6.320;2024-02-15T05:43:48;12.10;90.29
58102;HTU21D;52034;51.926;6.320;2024-02-15T05:44:54;12.10;90.34
58102;HTU21D;52034;51.926;6.320;2024-02-15T05:45:56;12.08;90.08
58102;HTU21D;52034;51.926;6.320;2024-02-15T05:47:00;12.10;90.43
58102;HTU21D;52034;51.926;6.320;2024-02-15T05:48:03;12.07;90.38
58102;HTU21D;52034;51.926;6.320;2024-02-15T05:49:07;12.04;90.66
58102;HTU21D;52034;51.926;6.320;2024-02-15T05:50:17;12.04;90.50
58102;HTU21D;52034;51.926;6.320;2024-02-15T05:51:22;12.08;90.45
58102;HTU21D;52034;51.926;6.320;2024-02-15T05:52:24;12.04;90.93
58102;HTU21D;52034;51.926;6.320;2024-02-15T05:53:26;12.05;90.57
58102;HTU21D;52034;51.926;6.320;2024-02-15T05:54:28;12.06;90.62
58102;HTU21D;52034;51.926;6.320;2024-02-15T05:55:29;12.10;89.92
58102;HTU21D;52034;51.926;6.320;2024-02-15T05:56:35;12.06;90.24
58102;HTU21D;52034;51.926;6.320;2024-02-15T05:57:37;12.03;91.18
58102;HTU21D;52034;51.926;6.320;2024-02-15T05:58:39;12.04;90.95
58102;HTU21D;52034;51.926;6.320;2024-02-15T05:59:43;12.01;90.85
58102;HTU21D;52034;51.926;6.320;2024-02-15T06:00:45;12.00;90.92
58102;HTU21D;52034;51.926;6.320;2024-02-15T06:01:47;12.01;90.68
58102;HTU21D;52034;51.926;6.320;2024-02-15T06:02:50;12.02;91.00
58102;HTU21D;52034;51.926;6.320;2024-02-15T06:03:53;12.04;90.94
58102;HTU21D;52034;51.926;6.320;2024-02-15T06:04:57;12.02;90.98
58102;HTU21D;52034;51.926;6.320;2024-02-15T06:06:05;12.01;90.97
58102;HTU21D;52034;51.926;6.320;2024-02-15T06:07:10;12.05;90.84
58102;HTU21D;52034;51.926;6.320;2024-02-15T06:08:12;12.06;90.14
58102;HTU21D;52034;51.926;6.320;2024-02-15T06:09:14;12.06;91.05
58102;HTU21D;52034;51.926;6.320;2024-02-15T06:10:15;12.05;91.08
58102;HTU21D;52034;51.926;6.320;2024-02-15T06:11:20;12.04;90.76
58102;HTU21D;52034;51.926;6.320;2024-02-15T06:12:22;12.01;91.42
58102;HTU21D;52034;51.926;6.320;2024-02-15T06:13:25;11.98;91.48
58102;HTU21D;52034;51.926;6.320;2024-02-15T06:14:27;11.98;91.73
58102;HTU21D;52034;51.926;6.320;2024-02-15T06:15:29;11.98;91.40
58102;HTU21D;52034;51.926;6.320;2024-02-15T06:16:30;11.99;91.31
58102;HTU21D;52034;51.926;6.320;2024-02-15T06:17:32;11.98;91.31
58102;HTU21D;52034;51.926;6.320;2024-02-15T06:18:34;11.98;90.95
58102;HTU21D;52034;51.926;6.320;2024-02-15T06:19:36;11.96;91.63
58102;HTU21D;52034;51.926;6.320;2024-02-15T06:20:39;11.94;91.68
58102;HTU21D;52034;51.926;6.320;2024-02-15T06:21:41;11.89;92.14
58102;HTU21D;52034;51.926;6.320;2024-02-15T06:22:43;11.90;91.94
58102;HTU21D;52034;51.926;6.320;2024-02-15T06:23:45;11.88;92.14
58102;HTU21D;52034;51.926;6.320;2024-02-15T06:24:47;11.86;92.15
58102;HTU21D;52034;51.926;6.320;2024-02-15T06:25:51;11.90;92.42
58102;HTU21D;52034;51.926;6.320;2024-02-15T06:26:57;11.91;92.34
58102;HTU21D;52034;51.926;6.320;2024-02-15T06:28:01;11.93;92.16
58102;HTU21D;52034;51.926;6.320;2024-02-15T06:29:14;11.84;92.42